Time;durP1;ratioP1;P1;durP2;ratioP2;P2;SDS_P1;SDS_P2;PMS_P1;PMS_P2;Temp;Humidity;BMP_temperature;BMP_pressure;BME280_temperature;BME280_humidity;BME280_pressure;Samples;Min_cycle;Max_cycle;Signal;HPM_P1;HPM_P2
2022/07/31 00:02:17;;;;;;;4.63;2.50;;;19.90;59.80;;;16.10;78.93;95918.69;4932307;29;20027;-43
2022/07/31 00:04:46;;;;;;;5.43;2.72;;;19.90;59.80;;;16.09;79.53;95909.06;4932582;29;20290;-42
2022/07/31 00:07:14;;;;;;;3.08;2.40;;;19.90;59.90;;;16.06;78.95;95906.16;4932507;29;20019;-43
2022/07/31 00:09:54;;;;;;;4.80;2.75;;;19.90;60.00;;;16.07;79.28;95918.50;4932224;29;20443;-42
2022/07/31 00:12:23;;;;;;;4.15;2.60;;;19.80;60.00;;;16.01;78.58;95908.91;4932243;29;20023;-42
2022/07/31 00:14:55;;;;;;;5.60;2.70;;;19.80;60.00;;;16.00;80.29;95912.69;4914976;29;20046;-42
2022/07/31 00:17:27;;;;;;;4.60;2.70;;;19.80;60.30;;;15.93;79.63;95905.00;4931393;29;20022;-42
2022/07/31 00:19:53;;;;;;;8.05;2.95;;;19.80;60.40;;;15.91;80.16;95899.09;4915036;29;20027;-43
2022/07/31 00:22:19;;;;;;;3.75;2.70;;;19.70;60.20;;;15.86;80.03;95899.19;4932323;29;20046;-42
2022/07/31 00:24:51;;;;;;;3.95;2.40;;;19.70;60.30;;;15.81;77.89;95901.94;4915490;29;20027;-42
2022/07/31 00:27:17;;;;;;;5.20;2.90;;;19.70;60.30;;;15.83;79.51;95899.78;4930727;29;20031;-50
2022/07/31 00:29:42;;;;;;;4.38;2.60;;;19.60;60.20;;;15.78;79.71;95895.25;4932129;29;20038;-43
2022/07/31 00:32:11;;;;;;;6.63;2.47;;;19.60;60.30;;;15.73;79.32;95896.13;4931754;29;20088;-43
2022/07/31 00:34:37;;;;;;;3.63;2.60;;;19.60;60.40;;;15.67;78.95;95901.88;4915269;29;20023;-43
2022/07/31 00:37:06;;;;;;;6.30;2.35;;;19.50;60.20;;;15.66;80.03;95905.59;4932828;29;20026;-43
2022/07/31 00:39:32;;;;;;;3.33;2.67;;;19.50;60.40;;;15.64;80.85;95903.22;4900006;29;20434;-44
2022/07/31 00:41:58;;;;;;;2.80;2.50;;;19.50;60.60;;;15.62;80.33;95899.22;4941302;28;20057;-44
2022/07/31 00:44:24;;;;;;;3.15;2.47;;;19.50;60.70;;;15.59;80.39;95897.91;4947037;28;20033;-42
2022/07/31 00:46:49;;;;;;;4.10;2.17;;;19.50;60.80;;;15.55;80.03;95890.72;4954607;28;20026;-49
2022/07/31 00:49:16;;;;;;;3.53;2.28;;;19.40;60.70;;;15.56;79.09;95886.94;4937371;28;20105;-42
2022/07/31 00:51:42;;;;;;;4.22;2.83;;;19.40;60.70;;;15.59;79.50;95899.78;4905575;28;20625;-43
2022/07/31 00:54:11;;;;;;;2.92;2.42;;;19.40;61.60;;;15.57;80.02;95894.69;4954688;28;20033;-44
2022/07/31 00:56:37;;;;;;;3.45;2.60;;;19.40;61.00;;;15.54;79.61;95886.41;4937620;28;20023;-48
2022/07/31 00:59:06;;;;;;;4.05;2.20;;;19.40;60.80;;;15.50;79.09;95888.88;4954431;28;20031;-42
2022/07/31 01:01:34;;;;;;;3.65;2.63;;;19.30;60.80;;;15.51;80.21;95882.41;4954713;28;20031;-43
2022/07/31 01:04:00;;;;;;;4.90;2.90;;;19.40;60.90;;;15.46;80.85;95883.28;4937358;28;20117;-42
2022/07/31 01:06:28;;;;;;;3.85;2.97;;;19.30;60.90;;;15.41;80.68;95886.03;4954557;28;20030;-42
2022/07/31 01:08:54;;;;;;;4.28;3.00;;;19.30;61.00;;;15.36;81.37;95888.00;4954211;28;20130;-42
2022/07/31 01:12:00;;;;;;;6.20;2.72;;;19.20;61.00;;;15.26;81.91;95886.22;4953185;28;20029;-44
2022/07/31 01:14:37;;;;;;;4.07;2.53;;;19.20;61.40;;;15.21;82.46;95872.88;4954233;28;20057;-46
2022/07/31 01:17:08;;;;;;;4.53;2.70;;;19.10;61.30;;;15.16;82.55;95875.59;4937805;28;20030;-42
2022/07/31 01:19:44;;;;;;;3.85;2.78;;;19.10;61.60;;;15.10;82.50;95879.44;4936769;28;20031;-46
2022/07/31 01:22:26;;;;;;;3.83;2.75;;;19.10;61.70;;;15.03;82.51;95882.47;4954335;28;20137;-42
2022/07/31 01:25:54;;;;;;;5.28;2.95;;;19.00;61.80;;;14.98;82.73;95880.66;4954254;28;20038;-43
2022/07/31 01:28:56;;;;;;;3.95;2.75;;;19.00;61.80;;;14.93;83.29;95878.00;4954129;28;20027;-43
2022/07/31 01:32:01;;;;;;;6.03;2.97;;;18.90;62.00;;;14.86;83.17;95872.19;4953727;28;20031;-45
2022/07/31 01:34:51;;;;;;;4.18;2.80;;;18.80;62.10;;;14.89;82.61;95871.63;4938034;28;20114;-42
2022/07/31 01:37:28;;;;;;;4.72;2.42;;;18.80;63.00;;;14.88;83.34;95879.94;4954353;28;20489;-45
2022/07/31 01:40:13;;;;;;;7.85;2.80;;;18.80;62.30;;;14.88;83.48;95877.25;4952075;28;20038;-43
2022/07/31 01:42:52;;;;;;;7.60;2.88;;;18.80;62.50;;;14.84;83.64;95885.06;4958440;28;20509;-43
2022/07/31 01:45:25;;;;;;;4.47;2.80;;;18.80;62.50;;;14.84;83.52;95878.91;4920713;28;20126;-42
2022/07/31 01:47:53;;;;;;;4.72;2.85;;;18.70;62.50;;;14.78;83.71;95872.81;4932976;29;20038;-42
2022/07/31 01:50:24;;;;;;;7.05;2.42;;;18.70;62.50;;;14.74;84.32;95877.94;4933156;29;20050;-41
2022/07/31 01:52:56;;;;;;;5.95;2.60;;;18.70;62.60;;;14.71;84.33;95880.38;4932523;29;20047;-46
2022/07/31 01:55:24;;;;;;;3.45;3.05;;;18.60;62.60;;;14.68;84.34;95878.28;4933629;29;20080;-41
2022/07/31 01:57:54;;;;;;;4.55;2.83;;;18.60;62.70;;;14.63;84.32;95881.00;4933122;29;20492;-42
2022/07/31 02:00:23;;;;;;;2.72;2.50;;;18.60;62.80;;;14.60;84.17;95879.66;4917121;29;20495;-43
2022/07/31 02:02:51;;;;;;;4.07;3.10;;;18.60;62.80;;;14.60;84.15;95887.72;4934304;29;20022;-42
2022/07/31 02:05:24;;;;;;;4.50;2.58;;;18.50;62.90;;;14.62;83.81;95882.09;4932932;29;20474;-43
2022/07/31 02:08:02;;;;;;;6.68;2.92;;;18.50;63.10;;;14.63;83.95;95886.34;4934078;29;20441;-41
2022/07/31 02:10:30;;;;;;;3.72;2.63;;;18.50;63.20;;;14.61;84.06;95894.69;4916622;29;20038;-42
2022/07/31 02:12:59;;;;;;;3.10;2.47;;;18.50;63.10;;;14.60;84.84;95895.75;4932789;29;20023;-42
2022/07/31 02:15:26;;;;;;;3.10;2.80;;;18.50;63.20;;;14.57;85.72;95889.09;4932959;29;20503;-42
2022/07/31 02:17:55;;;;;;;3.10;2.80;;;18.50;63.30;;;14.57;85.70;95891.78;4932386;29;20416;-42
2022/07/31 02:20:30;;;;;;;3.00;2.65;;;18.50;63.40;;;14.58;85.15;95893.38;4932374;29;20031;-41
2022/07/31 02:22:58;;;;;;;5.13;2.80;;;18.50;63.60;;;14.65;84.75;95903.75;4941469;28;20088;-41
2022/07/31 02:25:27;;;;;;;2.50;2.30;;;18.60;63.60;;;14.71;85.75;95893.78;4951873;28;20401;-43
2022/07/31 02:27:59;;;;;;;3.85;2.42;;;18.60;63.70;;;14.78;85.42;95896.94;4935797;28;20046;-44
2022/07/31 02:30:32;;;;;;;3.47;3.03;;;18.60;63.80;;;14.84;85.21;95903.06;4919750;28;20492;-42
2022/07/31 02:33:00;;;;;;;5.88;2.83;;;18.70;63.90;;;14.88;84.42;95894.16;4935858;28;20456;-42
2022/07/31 02:35:27;;;;;;;5.32;2.67;;;18.70;63.70;;;14.99;85.18;95900.22;4935683;28;20515;-42
2022/07/31 02:37:57;;;;;;;3.63;2.78;;;18.80;63.90;;;15.03;84.40;95895.88;4936038;28;20540;-42
2022/07/31 02:40:34;;;;;;;4.35;2.53;;;18.90;64.00;;;15.10;83.89;95892.84;4935288;28;20125;-42
2022/07/31 02:43:00;;;;;;;4.60;2.83;;;18.90;63.80;;;15.12;84.32;95886.13;4944586;28;20018;-41
2022/07/31 02:45:29;;;;;;;3.78;2.80;;;19.00;63.70;;;15.13;84.10;95886.91;4936195;28;20081;-42
2022/07/31 02:47:56;;;;;;;4.82;2.70;;;19.00;63.80;;;15.16;85.07;95889.81;4951706;28;20037;-42
2022/07/31 02:50:22;;;;;;;4.15;2.78;;;19.00;63.80;;;15.18;84.76;95884.97;4935165;28;20023;-42
2022/07/31 02:52:51;;;;;;;3.58;2.70;;;19.10;63.80;;;15.21;84.25;95883.59;4935635;28;20073;-42
2022/07/31 02:55:21;;;;;;;3.88;2.90;;;19.10;63.80;;;15.24;83.44;95888.41;4919658;28;20384;-44
2022/07/31 02:57:56;;;;;;;5.50;3.40;;;19.20;63.70;;;15.27;83.69;95885.16;4935486;28;20122;-41
2022/07/31 03:00:25;;;;;;;5.65;3.25;;;19.20;63.70;;;15.32;84.24;95889.66;4951058;28;20030;-42
2022/07/31 03:02:54;;;;;;;3.15;2.85;;;19.20;63.60;;;15.34;83.74;95895.53;4952206;28;20019;-45
2022/07/31 03:05:22;;;;;;;5.03;2.53;;;19.30;63.70;;;15.37;84.44;95882.34;4951107;28;20031;-49
2022/07/31 03:07:48;;;;;;;5.68;2.67;;;19.30;63.60;;;15.40;84.80;95886.34;4935147;28;20031;-41
2022/07/31 03:10:14;;;;;;;5.00;3.17;;;19.30;63.60;;;15.44;85.97;95890.03;4918781;28;20049;-42
2022/07/31 03:12:53;;;;;;;3.47;2.65;;;19.30;63.70;;;15.45;84.37;95883.59;4950934;28;20039;-47
2022/07/31 03:15:28;;;;;;;3.63;3.05;;;19.40;63.90;;;15.46;84.73;95888.66;4919370;28;20022;-43
2022/07/31 03:17:55;;;;;;;4.22;2.78;;;19.40;63.80;;;15.48;84.15;95889.19;4935486;28;20027;-42
2022/07/31 03:20:22;;;;;;;4.80;2.67;;;19.40;63.70;;;15.50;83.90;95892.34;4950385;28;20038;-41
2022/07/31 03:22:49;;;;;;;3.88;2.65;;;19.40;63.70;;;15.52;83.15;95896.66;4919517;28;20021;-42
2022/07/31 03:25:16;;;;;;;4.25;2.85;;;19.40;63.60;;;15.55;83.70;95896.09;4919094;28;20158;-41
2022/07/31 03:27:42;;;;;;;4.82;3.35;;;19.50;63.60;;;15.57;84.62;95894.69;4951182;28;20034;-46
2022/07/31 03:30:17;;;;;;;4.38;3.63;;;19.50;63.70;;;15.55;84.45;95894.19;4917842;29;20116;-42
2022/07/31 03:32:53;;;;;;;5.47;2.97;;;19.50;64.00;;;15.50;86.09;95894.25;4950784;28;20019;-43
2022/07/31 03:35:26;;;;;;;4.13;3.60;;;19.40;64.00;;;15.50;85.32;95892.34;4935062;28;20414;-43
2022/07/31 03:37:54;;;;;;;5.43;3.38;;;19.50;64.10;;;15.47;84.83;95892.16;4952181;28;20026;-41
2022/07/31 03:40:20;;;;;;;3.60;2.70;;;19.40;63.90;;;15.41;83.95;95893.28;4950575;29;20063;-42
2022/07/31 03:42:52;;;;;;;3.28;2.70;;;19.40;63.80;;;15.41;84.09;95893.28;4952051;29;20026;-43
2022/07/31 03:45:21;;;;;;;3.13;2.83;;;19.40;63.90;;;15.39;85.40;95898.16;4903652;29;20118;-45
2022/07/31 03:47:48;;;;;;;5.80;3.30;;;19.40;63.90;;;15.34;85.73;95890.16;4931857;29;20032;-45
2022/07/31 03:50:16;;;;;;;6.68;3.17;;;19.30;63.80;;;15.33;85.45;95888.56;4900074;29;20625;-41
2022/07/31 03:52:46;;;;;;;5.85;3.65;;;19.30;63.90;;;15.28;84.88;95889.41;4931546;29;20038;-46
2022/07/31 03:55:13;;;;;;;3.92;2.90;;;19.30;64.00;;;15.22;84.51;95902.09;4932282;29;20023;-48
2022/07/31 03:57:58;;;;;;;5.13;3.22;;;19.30;63.90;;;15.26;86.12;95896.94;4915628;29;20042;-45
2022/07/31 04:00:28;;;;;;;5.85;3.47;;;19.30;64.30;;;15.26;86.43;95895.09;4931138;29;20453;-45
2022/07/31 04:03:03;;;;;;;5.03;3.10;;;19.20;64.30;;;15.21;86.54;95895.13;4931240;29;20085;-41
2022/07/31 04:05:32;;;;;;;3.53;3.10;;;19.20;64.40;;;15.19;86.20;95889.25;4931029;29;20030;-44
2022/07/31 04:08:06;;;;;;;3.78;3.38;;;19.20;64.30;;;15.17;86.51;95886.06;4900547;29;20433;-42
2022/07/31 04:10:36;;;;;;;4.68;3.13;;;19.20;64.50;;;15.14;86.07;95883.16;4900232;29;20038;-44
2022/07/31 04:13:04;;;;;;;4.85;3.25;;;19.20;64.40;;;15.11;85.86;95895.25;4932436;29;20027;-42
2022/07/31 04:15:36;;;;;;;4.10;2.95;;;19.10;64.40;;;15.07;86.48;95885.38;4933874;29;20031;-41
2022/07/31 04:18:05;;;;;;;5.33;2.93;;;19.10;64.60;;;15.06;85.82;95886.47;4925833;28;20027;-43
2022/07/31 04:20:31;;;;;;;4.97;3.45;;;19.10;64.50;;;15.10;86.16;95890.16;4955091;28;20031;-42
2022/07/31 04:22:56;;;;;;;5.30;3.53;;;19.10;64.50;;;15.10;86.51;95895.53;4938146;28;20045;-42
2022/07/31 04:25:25;;;;;;;5.97;3.60;;;19.10;64.60;;;15.03;86.31;95890.50;4955197;28;20377;-42
2022/07/31 04:28:00;;;;;;;6.32;3.60;;;19.10;64.70;;;14.97;87.47;95897.00;4922218;28;20169;-42
2022/07/31 04:30:31;;;;;;;6.45;3.53;;;19.10;64.90;;;14.90;87.89;95900.03;4937735;28;20026;-42
2022/07/31 04:32:58;;;;;;;6.20;3.97;;;19.00;64.90;;;14.89;87.71;95903.00;4955163;28;20034;-48
2022/07/31 04:35:26;;;;;;;4.35;3.50;;;19.00;64.80;;;14.89;87.21;95908.38;4955133;28;20023;-43
2022/07/31 04:37:58;;;;;;;4.35;3.95;;;18.90;64.80;;;14.87;87.53;95902.50;4922452;28;20088;-41
2022/07/31 04:40:26;;;;;;;5.53;4.00;;;18.90;64.90;;;14.86;87.91;95900.91;4970524;23;20427;-47
2022/07/31 04:42:53;;;;;;;3.30;2.75;;;18.90;65.00;;;14.80;87.33;95903.63;4973303;28;20088;-48
2022/07/31 04:45:22;;;;;;;3.97;3.58;;;18.90;65.00;;;14.78;87.90;95900.41;4972431;28;20026;-46
2022/07/31 04:47:48;;;;;;;5.05;3.30;;;18.90;65.20;;;14.85;87.98;95910.00;4988653;28;20030;-48
2022/07/31 04:50:26;;;;;;;7.43;3.50;;;18.90;65.10;;;14.97;87.89;95913.09;4988656;28;20037;-46
2022/07/31 04:52:54;;;;;;;4.47;3.42;;;18.90;65.10;;;15.18;87.14;95906.44;4989041;28;20030;-49
2022/07/31 04:55:29;;;;;;;4.60;3.88;;;19.00;65.20;;;15.41;86.50;95912.88;4988909;28;20087;-48
2022/07/31 04:57:58;;;;;;;3.65;3.15;;;19.10;65.20;;;15.60;84.52;95912.13;4988841;28;20033;-49
2022/07/31 05:00:26;;;;;;;5.38;3.20;;;19.20;64.90;;;15.77;84.50;95914.38;4973627;28;20125;-47
2022/07/31 05:02:52;;;;;;;4.10;3.40;;;19.30;64.70;;;15.95;83.64;95913.53;4988662;28;20044;-49
2022/07/31 05:05:21;;;;;;;3.88;2.72;;;19.50;64.70;;;16.20;82.70;95909.69;4988914;28;20058;-47
2022/07/31 05:07:47;;;;;;;3.85;3.10;;;19.60;64.50;;;16.47;81.75;95910.91;4973809;28;20028;-47
2022/07/31 05:11:21;;;;;;;4.35;2.75;;;19.90;64.30;;;16.78;79.50;95919.28;4988259;28;20496;-47
2022/07/31 05:13:04;;;;;;;8.73;3.40;;;20.00;63.90;;;17.07;79.58;95909.06;4973269;28;20034;-46
2022/07/31 05:15:31;;;;;;;4.10;3.03;;;20.40;63.50;;;17.37;77.33;95909.59;4973863;28;20053;-47
2022/07/31 05:18:17;;;;;;;3.65;2.97;;;20.60;63.10;;;17.63;76.55;95904.47;4973819;28;20495;-46
2022/07/31 05:20:49;;;;;;;3.00;2.42;;;20.90;62.70;;;18.01;76.44;95905.00;4987913;28;20481;-49
2022/07/31 05:23:20;;;;;;;4.23;2.70;;;21.30;62.30;;;18.38;74.36;95905.78;4973440;28;20018;-47
2022/07/31 05:25:46;;;;;;;4.40;2.58;;;21.60;61.80;;;18.53;71.11;95909.25;4988706;28;20485;-46
2022/07/31 05:28:12;;;;;;;3.17;2.55;;;21.90;60.90;;;18.89;70.95;95912.66;4973462;28;20036;-47
2022/07/31 05:30:41;;;;;;;3.88;2.60;;;22.20;60.20;;;19.28;70.18;95904.91;4973070;28;20033;-46
2022/07/31 05:33:07;;;;;;;2.40;2.20;;;22.50;59.80;;;19.60;68.29;95896.41;4973548;28;20547;-46
2022/07/31 05:35:33;;;;;;;3.92;2.13;;;22.80;59.30;;;19.93;66.43;95898.75;4973327;28;20481;-48
2022/07/31 05:38:05;;;;;;;10.32;2.63;;;23.20;58.80;;;20.20;65.17;95899.53;4973537;28;20037;-46
2022/07/31 05:40:36;;;;;;;4.20;2.20;;;23.40;58.20;;;20.47;64.55;95903.84;4972963;28;20046;-47
2022/07/31 05:43:05;;;;;;;2.50;2.30;;;23.70;57.60;;;20.65;62.07;95904.63;4973157;28;20113;-47
2022/07/31 05:45:31;;;;;;;2.38;2.13;;;24.00;56.90;;;20.86;61.50;95908.25;4973202;28;20022;-47
2022/07/31 05:47:57;;;;;;;4.90;2.35;;;24.20;56.20;;;21.15;58.28;95914.84;4971628;28;20584;-46
2022/07/31 05:50:23;;;;;;;2.30;2.10;;;24.60;55.40;;;21.43;57.25;95907.91;4971093;28;20049;-50
2022/07/31 05:52:55;;;;;;;3.17;2.60;;;24.80;54.60;;;21.74;57.31;95911.44;4971813;28;20026;-49
2022/07/31 05:55:21;;;;;;;2.83;2.30;;;25.00;53.90;;;21.98;55.15;95913.53;4988049;28;20109;-47
2022/07/31 05:57:48;;;;;;;5.05;2.28;;;25.20;53.50;;;22.20;54.30;95904.31;4987891;28;20033;-47
2022/07/31 06:00:17;;;;;;;3.35;2.30;;;25.40;52.60;;;22.37;54.43;95906.88;4972454;28;20113;-50
2022/07/31 06:02:44;;;;;;;3.35;2.33;;;25.70;52.30;;;22.69;53.76;95916.19;4973032;28;20095;-49
2022/07/31 06:05:19;;;;;;;2.97;2.10;;;25.90;51.70;;;22.98;51.81;95915.25;4973243;28;20041;-51
2022/07/31 06:07:50;;;;;;;4.60;2.50;;;26.20;51.10;;;23.03;52.23;95915.06;4971803;28;20130;-51
2022/07/31 06:10:18;;;;;;;4.85;2.20;;;26.40;50.40;;;23.30;51.24;95927.22;4971041;28;20365;-46
2022/07/31 06:12:44;;;;;;;4.50;2.25;;;26.70;49.90;;;23.52;51.14;95922.47;4969463;28;20029;-51
2022/07/31 06:15:13;;;;;;;2.97;2.40;;;26.90;49.50;;;23.68;50.63;95917.94;4972111;28;20022;-47
2022/07/31 06:17:43;;;;;;;2.85;2.53;;;27.20;49.00;;;23.83;49.90;95918.41;4972567;28;20026;-47
2022/07/31 06:20:11;;;;;;;5.88;2.05;;;27.50;48.90;;;24.09;49.23;95920.75;4944640;28;21332;-48
2022/07/31 06:22:38;;;;;;;2.40;2.20;;;27.80;47.80;;;24.32;49.37;95929.19;4972130;28;20022;-47
2022/07/31 06:25:08;;;;;;;3.85;2.10;;;28.00;47.30;;;24.45;48.29;95923.41;4972652;28;20042;-47
2022/07/31 06:27:38;;;;;;;5.30;2.33;;;28.30;46.60;;;24.62;48.01;95922.31;4971515;28;20591;-47
2022/07/31 06:30:06;;;;;;;4.15;2.35;;;28.60;46.10;;;24.77;47.14;95926.25;4971035;28;20058;-46
2022/07/31 06:32:36;;;;;;;2.80;2.60;;;28.90;45.60;;;24.60;48.18;95923.81;4972743;28;20423;-46
2022/07/31 06:35:03;;;;;;;2.97;2.50;;;29.00;45.10;;;24.53;48.43;95926.34;4971217;28;20025;-47
2022/07/31 06:37:30;;;;;;;2.65;2.45;;;29.20;44.80;;;24.60;47.86;95923.81;4974241;28;20022;-46
2022/07/31 06:39:56;;;;;;;4.22;2.50;;;29.40;44.40;;;24.61;48.02;95928.13;4986678;28;20054;-50
2022/07/31 06:42:24;;;;;;;4.47;2.92;;;29.50;43.90;;;24.60;48.91;95924.63;4972326;28;20377;-47
2022/07/31 06:44:52;;;;;;;2.97;2.45;;;29.70;43.50;;;24.64;48.45;95933.69;4987122;28;20053;-50
2022/07/31 06:47:40;;;;;;;4.32;2.90;;;29.80;43.20;;;24.50;49.29;95930.53;4972295;28;20022;-49
2022/07/31 06:50:12;;;;;;;8.00;2.97;;;29.80;42.90;;;24.45;49.43;95928.09;4923397;28;24049;-50
2022/07/31 06:52:41;;;;;;;3.33;2.58;;;29.80;42.80;;;24.39;50.48;95932.16;4971928;28;20026;-50
2022/07/31 06:55:08;;;;;;;5.75;2.60;;;29.80;42.80;;;24.24;49.40;95926.28;4986884;28;20437;-50
2022/07/31 06:57:34;;;;;;;2.75;2.55;;;29.70;42.70;;;24.24;49.58;95928.22;4971108;28;20048;-51
2022/07/31 07:00:08;;;;;;;2.72;2.45;;;29.60;42.60;;;24.26;50.07;95931.38;4971473;28;20084;-46
2022/07/31 07:02:37;;;;;;;3.42;2.80;;;29.60;42.50;;;24.22;50.69;95930.47;4963767;28;20113;-47
2022/07/31 07:05:04;;;;;;;4.22;2.72;;;29.60;42.70;;;24.58;49.36;95931.56;4984989;28;20022;-47
2022/07/31 07:07:30;;;;;;;3.80;2.53;;;29.70;42.40;;;24.86;48.05;95932.34;4986176;28;20048;-48
2022/07/31 07:09:58;;;;;;;3.63;2.65;;;29.90;42.10;;;25.19;47.97;95933.22;4971227;28;20026;-47
2022/07/31 07:12:27;;;;;;;3.20;2.67;;;30.20;41.80;;;25.40;46.82;95933.75;4986741;28;20471;-51
2022/07/31 07:14:56;;;;;;;3.08;2.78;;;30.50;41.50;;;25.60;45.84;95935.44;4993590;28;20208;-47
2022/07/31 07:17:25;;;;;;;4.03;2.95;;;30.80;41.00;;;25.75;46.00;95943.94;4976913;28;20109;-51
2022/07/31 07:19:51;;;;;;;3.95;2.70;;;31.00;40.60;;;25.93;45.02;95931.53;4981423;28;20084;-48
2022/07/31 07:22:26;;;;;;;4.05;2.83;;;31.20;40.30;;;26.22;46.03;95932.97;4991731;28;20030;-49
2022/07/31 07:24:55;;;;;;;3.75;2.67;;;31.50;40.10;;;26.50;44.36;95935.53;4971410;28;20061;-46
2022/07/31 07:27:23;;;;;;;3.38;2.30;;;31.70;39.60;;;26.75;43.19;95933.31;4965539;28;20022;-47
2022/07/31 07:29:59;;;;;;;3.20;2.58;;;32.00;39.20;;;26.72;42.53;95930.50;4970780;28;20030;-48
2022/07/31 07:32:25;;;;;;;6.18;2.53;;;32.20;38.40;;;26.71;42.86;95931.66;4971092;28;20497;-49
2022/07/31 07:34:51;;;;;;;5.07;2.50;;;32.40;38.20;;;26.88;42.64;95920.28;4970240;28;20084;-51
2022/07/31 07:37:17;;;;;;;3.17;2.58;;;32.60;37.70;;;26.90;42.40;95928.91;4970101;28;20105;-46
2022/07/31 07:39:45;;;;;;;4.15;2.47;;;32.80;37.30;;;27.04;42.59;95922.13;4969975;28;20572;-48
2022/07/31 07:42:11;;;;;;;2.90;2.70;;;33.10;36.90;;;27.29;41.47;95908.94;4985579;28;20045;-48
2022/07/31 07:44:40;;;;;;;4.65;2.45;;;33.20;36.50;;;27.57;41.87;95919.56;4986247;28;20018;-50
2022/07/31 07:47:12;;;;;;;4.70;2.78;;;33.40;36.40;;;27.89;41.23;95922.81;4985778;28;20023;-46
2022/07/31 07:49:38;;;;;;;2.90;2.45;;;33.70;36.20;;;27.78;40.89;95917.19;4971656;28;20157;-48
2022/07/31 07:52:07;;;;;;;3.03;2.75;;;33.90;35.80;;;27.64;40.86;95911.47;4975334;28;20108;-51
2022/07/31 07:54:32;;;;;;;4.05;3.47;;;34.00;35.00;;;27.95;41.76;95912.34;4975331;28;20109;-48
2022/07/31 07:56:58;;;;;;;4.13;2.85;;;34.10;35.10;;;28.40;39.67;95910.63;4975171;28;20161;-49
2022/07/31 07:59:27;;;;;;;3.90;2.85;;;34.30;35.00;;;28.30;39.71;95907.38;4989547;28;20447;-48
2022/07/31 08:01:56;;;;;;;2.90;2.70;;;34.50;34.50;;;28.46;39.93;95904.50;4989815;28;20497;-51
2022/07/31 08:04:22;;;;;;;5.30;3.03;;;34.70;34.30;;;28.65;39.27;95911.75;4974069;28;20366;-51
2022/07/31 08:07:00;;;;;;;3.35;2.85;;;34.80;33.90;;;29.09;38.41;95916.56;4944105;28;22359;-48
2022/07/31 08:09:25;;;;;;;3.28;2.70;;;34.90;33.60;;;29.17;38.25;95909.19;4974325;28;20092;-51
2022/07/31 08:11:54;;;;;;;3.58;3.28;;;35.10;33.40;;;29.28;37.72;95913.63;4973572;28;20022;-49
2022/07/31 08:14:20;;;;;;;5.47;2.97;;;35.20;33.10;;;29.29;37.32;95906.19;4989651;28;20033;-52
2022/07/31 08:16:48;;;;;;;3.83;3.22;;;35.30;32.80;;;29.42;38.49;95907.47;4990675;28;20014;-49
2022/07/31 08:19:14;;;;;;;3.72;3.35;;;35.50;32.70;;;29.71;38.06;95899.53;4989281;28;20137;-51
2022/07/31 08:21:39;;;;;;;3.28;2.90;;;35.70;32.60;;;29.74;37.75;95906.97;4974865;28;20022;-51
2022/07/31 08:24:06;;;;;;;4.03;2.85;;;35.90;32.40;;;29.81;37.86;95901.53;4957250;28;20506;-47
2022/07/31 08:29:19;;;;;;;4.50;3.20;;;36.20;31.90;;;30.33;36.92;95902.25;4974283;28;20507;-47
2022/07/31 08:31:45;;;;;;;3.15;2.85;;;36.40;31.70;;;30.51;35.57;95899.59;4989683;28;20045;-47
2022/07/31 08:34:13;;;;;;;4.30;3.20;;;36.60;31.40;;;30.70;35.56;95906.75;5007145;28;20026;-50
2022/07/31 08:36:39;;;;;;;4.70;3.13;;;36.80;31.00;;;30.31;35.21;95892.84;4976031;28;20033;-49
2022/07/31 08:39:08;;;;;;;5.40;3.10;;;37.00;30.30;;;30.60;36.92;95902.00;4967999;28;20033;-47
2022/07/31 08:41:39;;;;;;;4.97;3.38;;;37.00;30.40;;;31.07;35.75;95898.22;4968399;28;20046;-47
2022/07/31 08:44:09;;;;;;;6.38;3.42;;;37.20;30.30;;;30.96;34.61;95896.63;4993959;28;20399;-52
2022/07/31 08:46:40;;;;;;;3.65;3.28;;;37.30;30.00;;;30.64;34.18;95909.06;5009098;28;20029;-52
2022/07/31 08:49:08;;;;;;;5.07;3.10;;;37.40;29.50;;;30.96;33.78;95902.13;4993273;28;20414;-51
2022/07/31 08:51:42;;;;;;;3.83;2.85;;;37.40;29.30;;;31.49;33.32;95896.72;5008880;28;20014;-47
2022/07/31 08:54:17;;;;;;;3.55;2.90;;;37.60;29.30;;;31.72;33.21;95892.81;5008915;28;20362;-47
2022/07/31 08:56:45;;;;;;;3.63;3.33;;;37.80;29.20;;;31.38;32.30;95895.94;5008470;28;20029;-47
2022/07/31 08:59:11;;;;;;;4.63;3.42;;;38.00;28.80;;;31.31;32.70;95893.97;4992784;28;20030;-48
2022/07/31 09:01:43;;;;;;;5.30;3.22;;;38.10;28.40;;;31.31;32.83;95893.19;5008099;28;20415;-52
2022/07/31 09:04:15;;;;;;;6.18;3.20;;;38.10;28.10;;;31.66;31.98;95891.63;4993382;28;20099;-49
2022/07/31 09:07:04;;;;;;;4.18;2.90;;;38.20;28.00;;;31.56;31.20;95896.75;4993438;28;20405;-47
2022/07/31 09:09:31;;;;;;;4.45;3.28;;;38.30;27.60;;;31.91;31.40;95899.91;4992052;28;20486;-52
2022/07/31 09:11:57;;;;;;;4.45;3.20;;;38.40;27.60;;;32.05;32.08;95890.81;4991852;28;20026;-50
2022/07/31 09:14:48;;;;;;;3.45;3.15;;;38.50;27.70;;;31.98;31.59;95897.91;4992959;28;20052;-49
2022/07/31 09:17:16;;;;;;;5.72;3.40;;;38.60;27.80;;;32.15;30.93;95899.03;4991993;28;20021;-48
2022/07/31 09:19:46;;;;;;;3.20;2.90;;;38.70;27.40;;;32.48;30.23;95902.53;5007733;28;20373;-49
2022/07/31 09:22:30;;;;;;;4.70;3.28;;;38.80;27.20;;;32.65;30.13;95898.91;5007855;28;20024;-49
2022/07/31 09:25:17;;;;;;;3.15;2.85;;;39.00;27.10;;;32.87;30.36;95896.84;5007632;28;20029;-50
2022/07/31 09:27:45;;;;;;;4.57;3.28;;;39.20;27.00;;;32.90;30.79;95901.53;5007345;28;20103;-49
2022/07/31 09:30:12;;;;;;;3.40;3.10;;;39.50;26.90;;;33.11;29.94;95905.41;4992215;28;20362;-47
2022/07/31 09:32:37;;;;;;;5.55;3.30;;;39.60;26.60;;;32.86;30.76;95903.53;4991284;28;20018;-48
2022/07/31 09:35:14;;;;;;;4.80;3.30;;;39.80;26.60;;;32.66;29.38;95900.50;4982003;28;20041;-52
2022/07/31 09:37:46;;;;;;;5.47;3.30;;;39.80;26.20;;;33.01;28.78;95909.03;4980191;28;20029;-47
2022/07/31 09:40:13;;;;;;;4.25;3.20;;;39.90;25.80;;;33.40;28.49;95897.72;4998384;28;20065;-48
2022/07/31 09:42:44;;;;;;;6.35;3.60;;;40.00;25.80;;;33.51;28.87;95890.19;4992747;28;20104;-48
2022/07/31 09:45:24;;;;;;;5.60;3.47;;;40.10;25.70;;;33.74;28.83;95888.81;4973779;28;20045;-48
2022/07/31 09:48:11;;;;;;;3.60;2.95;;;40.20;25.60;;;33.50;28.82;95885.84;4988324;28;20026;-50
2022/07/31 09:50:50;;;;;;;4.80;3.28;;;40.30;25.50;;;33.53;28.72;95884.25;4972432;28;20018;-50
2022/07/31 09:53:20;;;;;;;3.45;3.00;;;40.30;25.20;;;33.55;27.97;95895.66;4971633;28;20388;-48
2022/07/31 09:55:57;;;;;;;3.60;3.30;;;40.30;25.00;;;33.70;27.64;95888.84;4987772;28;20401;-53
2022/07/31 09:58:24;;;;;;;5.63;2.97;;;40.40;25.00;;;34.13;27.58;95895.94;4986527;28;20041;-49
2022/07/31 10:00:55;;;;;;;3.55;2.97;;;40.50;25.00;;;34.39;27.20;95886.97;4970675;28;20033;-50
2022/07/31 10:03:28;;;;;;;6.87;3.37;;;40.70;24.70;;;34.52;26.42;95887.22;4987958;28;20049;-48
2022/07/31 10:05:57;;;;;;;4.90;3.13;;;40.90;24.60;;;34.74;25.62;95887.78;4986415;28;20068;-47
2022/07/31 10:08:25;;;;;;;4.88;3.00;;;41.00;24.40;;;35.02;25.36;95886.59;5007595;28;20025;-47
2022/07/31 10:11:05;;;;;;;2.88;2.63;;;41.20;24.20;;;35.20;24.64;95886.38;4955422;28;20045;-50
2022/07/31 10:13:38;;;;;;;4.00;3.28;;;41.40;24.00;;;35.51;25.93;95878.78;4987486;28;20584;-47
2022/07/31 10:16:06;;;;;;;4.95;3.22;;;41.80;24.00;;;35.63;24.64;95883.75;4987391;28;20504;-49
2022/07/31 10:18:40;;;;;;;5.60;2.80;;;41.90;23.50;;;35.41;24.71;95871.41;4987729;28;20050;-52
2022/07/31 10:21:10;;;;;;;3.85;2.90;;;42.00;23.20;;;35.68;24.76;95872.19;4971647;28;20029;-51
2022/07/31 10:23:42;;;;;;;3.67;3.20;;;42.00;23.20;;;35.38;24.88;95867.50;4972948;28;20436;-48
2022/07/31 10:26:10;;;;;;;3.03;2.75;;;42.10;23.00;;;34.78;25.68;95875.44;4971367;28;20111;-47
2022/07/31 10:28:37;;;;;;;3.20;2.90;;;42.10;23.00;;;34.82;25.07;95871.84;4971540;28;20030;-49
2022/07/31 10:31:06;;;;;;;3.42;3.08;;;42.10;22.80;;;35.02;24.33;95869.22;4987771;28;20033;-47
2022/07/31 10:33:35;;;;;;;4.15;2.80;;;42.10;22.60;;;35.10;24.93;95865.16;4971893;28;20076;-52
2022/07/31 10:36:21;;;;;;;3.47;2.90;;;42.20;22.50;;;35.04;25.46;95855.75;4968994;28;20101;-47
2022/07/31 10:39:08;;;;;;;3.30;2.97;;;42.30;22.40;;;35.09;25.57;95864.38;4999222;28;20385;-49